createdAt,value
2018-02-27T00:00:55.486Z,-14.71
2018-02-27T00:01:55.899Z,-14.69
2018-02-27T00:02:55.483Z,-14.67
2018-02-27T00:03:55.465Z,-14.74
2018-02-27T00:04:55.489Z,-14.76
2018-02-27T00:05:55.347Z,-14.88
2018-02-27T00:06:55.861Z,-14.8
2018-02-27T00:07:55.490Z,-14.77
2018-02-27T00:08:55.489Z,-14.72
2018-02-27T00:09:55.372Z,-14.74
2018-02-27T00:10:55.502Z,-14.75
2018-02-27T00:11:55.986Z,-14.78
2018-02-27T00:12:55.529Z,-14.74
2018-02-27T00:13:55.524Z,-14.72
2018-02-27T00:14:55.386Z,-14.7
2018-02-27T00:15:55.372Z,-14.76
2018-02-27T00:16:55.376Z,-14.63
2018-02-27T00:17:55.398Z,-14.87
2018-02-27T00:18:55.387Z,-14.98
2018-02-27T00:19:55.392Z,-14.92
2018-02-27T00:20:55.394Z,-14.89
2018-02-27T00:21:55.877Z,-14.84
2018-02-27T00:22:55.402Z,-14.86
2018-02-27T00:23:55.410Z,-14.79
2018-02-27T00:24:55.406Z,-14.82
2018-02-27T00:25:55.460Z,-14.86
2018-02-27T00:26:55.432Z,-14.84
2018-02-27T00:27:55.410Z,-14.82
2018-02-27T00:28:55.557Z,-14.83
2018-02-27T00:29:55.460Z,-14.82
2018-02-27T00:30:55.408Z,-14.84
2018-02-27T00:31:55.918Z,-14.83
2018-02-27T00:32:55.401Z,-14.85
2018-02-27T00:33:55.424Z,-14.81
2018-02-27T00:34:55.436Z,-14.9
2018-02-27T00:35:55.423Z,-14.8
2018-02-27T00:36:55.441Z,-14.81
2018-02-27T00:37:55.448Z,-14.82
2018-02-27T00:38:55.463Z,-14.84
2018-02-27T00:39:55.447Z,-14.83
2018-02-27T00:40:55.448Z,-14.76
2018-02-27T00:41:56.010Z,-14.8
2018-02-27T00:42:55.487Z,-14.76
2018-02-27T00:43:55.453Z,-14.82
2018-02-27T00:44:55.438Z,-14.85
2018-02-27T00:45:55.455Z,-14.82
2018-02-27T00:46:55.446Z,-14.88
2018-02-27T00:47:55.438Z,-14.89
2018-02-27T00:48:55.746Z,-14.93
2018-02-27T00:49:55.480Z,-14.85
2018-02-27T00:50:55.622Z,-14.84
2018-02-27T00:51:55.694Z,-14.83
2018-02-27T00:52:55.640Z,-14.77
2018-02-27T00:53:55.642Z,-14.86
2018-02-27T00:54:55.469Z,-14.79
2018-02-27T00:55:55.662Z,-14.82
2018-02-27T00:56:55.646Z,-14.84
2018-02-27T00:57:55.649Z,-14.82
2018-02-27T00:58:55.672Z,-14.84
2018-02-27T00:59:55.503Z,-14.86
2018-02-27T01:00:55.659Z,-14.85
2018-02-27T01:01:55.663Z,-14.88
2018-02-27T01:02:55.495Z,-14.86
2018-02-27T01:03:55.650Z,-14.85
2018-02-27T01:04:55.670Z,-14.86
2018-02-27T01:05:55.673Z,-14.87
2018-02-27T01:06:55.713Z,-14.87
2018-02-27T01:07:55.500Z,-14.88
2018-02-27T01:08:55.515Z,-14.91
2018-02-27T01:09:55.531Z,-14.94
2018-02-27T01:10:55.519Z,-14.98
2018-02-27T01:11:55.523Z,-14.96
2018-02-27T01:12:55.518Z,-14.93
2018-02-27T01:13:55.531Z,-14.94
2018-02-27T01:14:55.550Z,-14.91
2018-02-27T01:15:55.525Z,-14.9
2018-02-27T01:16:55.562Z,-14.92
2018-02-27T01:17:55.523Z,-15.02
2018-02-27T01:18:55.531Z,-15.12
2018-02-27T01:19:55.546Z,-15.07
2018-02-27T01:20:55.529Z,-15.05
2018-02-27T01:21:55.596Z,-14.96
2018-02-27T01:22:55.542Z,-15.01
2018-02-27T01:23:55.549Z,-14.98
2018-02-27T01:24:55.577Z,-14.95
2018-02-27T01:25:55.789Z,-14.97
2018-02-27T01:28:55.593Z,-15.02
2018-02-27T01:29:55.566Z,-15.01
2018-02-27T01:30:55.559Z,-14.96
2018-02-27T01:31:55.568Z,-15.06
2018-02-27T01:32:55.578Z,-15.07
2018-02-27T01:33:55.578Z,-15.08
2018-02-27T01:34:55.574Z,-15.06
2018-02-27T01:35:55.572Z,-14.99
2018-02-27T01:36:55.590Z,-15.01
2018-02-27T01:37:55.596Z,-15.02
2018-02-27T01:38:55.635Z,-14.96
2018-02-27T01:39:55.597Z,-14.99
2018-02-27T01:40:55.601Z,-14.99
2018-02-27T01:41:55.607Z,-15.02
2018-02-27T01:42:55.596Z,-15.05
2018-02-27T01:43:55.595Z,-15.09
2018-02-27T01:44:55.608Z,-15.05
2018-02-27T01:45:55.635Z,-15.05
2018-02-27T01:46:55.622Z,-15.04
2018-02-27T01:47:55.630Z,-15.07
2018-02-27T01:48:55.628Z,-15.01
2018-02-27T01:49:55.680Z,-14.99
2018-02-27T01:50:55.729Z,-15.02
2018-02-27T01:51:55.660Z,-15.02
2018-02-27T01:52:55.632Z,-15.03
2018-02-27T01:53:56.010Z,-15.07
2018-02-27T01:54:55.660Z,-15.08
2018-02-27T01:55:55.674Z,-15.13
2018-02-27T01:56:55.651Z,-15.15
2018-02-27T01:57:55.655Z,-15.1
2018-02-27T01:58:55.680Z,-15.07
2018-02-27T01:59:55.668Z,-15.08
2018-02-27T02:00:55.723Z,-15.01
2018-02-27T02:01:55.824Z,-15.05
2018-02-27T02:02:55.828Z,-15.01
2018-02-27T02:03:55.825Z,-15.02
2018-02-27T02:04:55.818Z,-15.02
2018-02-27T02:05:55.840Z,-15.03
2018-02-27T02:06:55.671Z,-14.98
2018-02-27T02:07:55.854Z,-15.02
2018-02-27T02:08:55.848Z,-15.03
2018-02-27T02:09:55.829Z,-15.07
2018-02-27T02:10:55.860Z,-15.11
2018-02-27T02:11:55.862Z,-15.13
2018-02-27T02:12:55.917Z,-15.12
2018-02-27T02:13:55.858Z,-15.11
2018-02-27T02:14:55.868Z,-15.1
2018-02-27T02:15:55.853Z,-15.11
2018-02-27T02:16:55.876Z,-15.13
2018-02-27T02:17:55.872Z,-15.14
2018-02-27T02:18:55.863Z,-15.12
2018-02-27T02:19:58.004Z,-15.16
2018-02-27T02:20:57.941Z,-15.13
2018-02-27T02:21:58.710Z,-15.15
2018-02-27T02:22:55.872Z,-15.15
2018-02-27T02:23:55.889Z,-15.1
2018-02-27T02:24:55.916Z,-15.11
2018-02-27T02:25:55.907Z,-15.08
2018-02-27T02:26:55.911Z,-15.12
2018-02-27T02:27:55.740Z,-15.08
2018-02-27T02:28:55.892Z,-15.08
2018-02-27T02:29:55.928Z,-15.03
2018-02-27T02:30:55.916Z,-15.02
2018-02-27T02:31:56.305Z,-15.08
2018-02-27T02:32:55.917Z,-15.07
2018-02-27T02:33:55.907Z,-15.07
2018-02-27T02:34:55.907Z,-15.11
2018-02-27T02:35:55.920Z,-15.07
2018-02-27T02:36:55.920Z,-15.11
2018-02-27T02:37:55.784Z,-15.07
2018-02-27T02:40:01.962Z,-15.02
2018-02-27T02:40:55.763Z,-15.04
2018-02-27T02:41:55.813Z,-15.02
2018-02-27T02:42:55.800Z,-15.02
2018-02-27T02:43:55.784Z,-15.02
2018-02-27T02:44:55.778Z,-14.97
2018-02-27T02:45:55.785Z,-14.99
2018-02-27T02:46:55.789Z,-15.01
2018-02-27T02:47:55.812Z,-14.99
2018-02-27T02:48:55.787Z,-14.95
2018-02-27T02:49:55.811Z,-14.99
2018-02-27T02:50:55.792Z,-14.99
2018-02-27T02:51:55.799Z,-15.01
2018-02-27T02:52:55.820Z,-14.97
2018-02-27T02:53:55.807Z,-14.95
2018-02-27T02:54:55.807Z,-14.93
2018-02-27T02:55:55.817Z,-14.88
2018-02-27T02:56:55.803Z,-14.89
2018-02-27T02:57:55.810Z,-14.88
2018-02-27T02:58:55.811Z,-14.88
2018-02-27T02:59:55.813Z,-14.86
2018-02-27T03:00:55.820Z,-14.84
2018-02-27T03:01:55.853Z,-14.81
2018-02-27T03:02:55.831Z,-14.83
2018-02-27T03:03:55.820Z,-14.85
2018-02-27T03:04:55.824Z,-14.87
2018-02-27T03:05:55.834Z,-14.83
2018-02-27T03:06:55.905Z,-14.82
2018-02-27T03:07:55.835Z,-14.87
2018-02-27T03:08:55.989Z,-14.87
2018-02-27T03:09:55.843Z,-14.89
2018-02-27T03:10:55.849Z,-14.87
2018-02-27T03:11:55.851Z,-14.82
2018-02-27T03:12:55.997Z,-14.81
2018-02-27T03:13:56.023Z,-14.82
2018-02-27T03:14:56.014Z,-14.74
2018-02-27T03:15:56.012Z,-14.77
2018-02-27T03:16:56.019Z,-14.78
2018-02-27T03:17:56.058Z,-14.74
2018-02-27T03:18:56.038Z,-14.71
2018-02-27T03:19:56.037Z,-14.68
2018-02-27T03:20:56.041Z,-14.75
2018-02-27T03:21:56.053Z,-14.72
2018-02-27T03:22:56.072Z,-14.7
2018-02-27T03:23:56.059Z,-14.67
2018-02-27T03:24:56.074Z,-14.69
2018-02-27T03:25:56.070Z,-14.63
2018-02-27T03:26:56.056Z,-14.67
2018-02-27T03:27:56.070Z,-14.61
2018-02-27T03:28:55.938Z,-14.63
2018-02-27T03:29:56.107Z,-14.64
2018-02-27T03:30:56.101Z,-14.62
2018-02-27T03:31:55.929Z,-14.63
2018-02-27T03:32:56.077Z,-14.57
2018-02-27T03:33:56.111Z,-14.54
2018-02-27T03:34:56.091Z,-14.52
2018-02-27T03:35:56.076Z,-14.53
2018-02-27T03:36:56.091Z,-14.52
2018-02-27T03:37:56.079Z,-14.49
2018-02-27T03:38:56.084Z,-14.51
2018-02-27T03:39:56.082Z,-14.48
2018-02-27T03:40:56.087Z,-14.46
2018-02-27T03:41:56.083Z,-14.51
2018-02-27T03:42:56.095Z,-14.37
2018-02-27T03:43:56.163Z,-14.38
2018-02-27T03:44:56.127Z,-14.4
2018-02-27T03:45:55.949Z,-14.37
2018-02-27T03:46:56.119Z,-14.37
2018-02-27T03:47:56.123Z,-14.36
2018-02-27T03:48:55.970Z,-14.32
2018-02-27T03:49:56.135Z,-14.35
2018-02-27T03:50:55.981Z,-14.42
2018-02-27T03:51:55.965Z,-14.45
2018-02-27T03:52:56.008Z,-14.42
2018-02-27T03:53:56.000Z,-14.41
2018-02-27T03:54:55.989Z,-14.51
2018-02-27T03:55:55.995Z,-14.56
2018-02-27T03:56:56.001Z,-14.54
2018-02-27T03:57:56.004Z,-14.46
2018-02-27T03:58:56.018Z,-14.54
2018-02-27T03:59:56.004Z,-14.51
2018-02-27T04:00:56.013Z,-14.54
2018-02-27T04:01:56.167Z,-14.51
2018-02-27T04:02:56.034Z,-14.63
2018-02-27T04:05:02.267Z,-14.6
2018-02-27T04:05:56.040Z,-14.61
2018-02-27T04:06:56.037Z,-14.7
2018-02-27T04:07:56.056Z,-14.75
2018-02-27T04:08:56.047Z,-14.73
2018-02-27T04:09:56.036Z,-14.74
2018-02-27T04:10:56.209Z,-14.8
2018-02-27T04:11:56.048Z,-14.77
2018-02-27T04:13:56.189Z,-14.83
2018-02-27T04:14:56.049Z,-14.8
2018-02-27T04:15:56.048Z,-14.81
2018-02-27T04:16:56.065Z,-14.8
2018-02-27T04:17:56.076Z,-14.78
2018-02-27T04:18:56.064Z,-14.81
2018-02-27T04:19:56.075Z,-14.82
2018-02-27T04:20:56.079Z,-14.84
2018-02-27T04:21:56.086Z,-14.89
2018-02-27T04:24:16.851Z,-14.84
2018-02-27T04:24:56.270Z,-14.84
2018-02-27T04:25:56.261Z,-14.72
2018-02-27T04:26:56.253Z,-14.81
2018-02-27T04:27:56.238Z,-14.84
2018-02-27T04:28:56.260Z,-14.8
2018-02-27T04:29:56.272Z,-14.78
2018-02-27T04:30:56.263Z,-14.75
2018-02-27T04:31:56.261Z,-14.77
2018-02-27T04:32:56.278Z,-14.81
2018-02-27T04:33:56.280Z,-14.79
2018-02-27T04:34:56.272Z,-14.79
2018-02-27T04:35:56.122Z,-14.77
2018-02-27T04:36:56.291Z,-14.77
2018-02-27T04:37:56.280Z,-14.75
2018-02-27T04:38:56.285Z,-14.76
2018-02-27T04:39:56.127Z,-14.71
2018-02-27T04:40:56.291Z,-14.77
2018-02-27T04:41:56.327Z,-14.8
2018-02-27T04:42:56.145Z,-14.79
2018-02-27T04:43:56.137Z,-14.78
2018-02-27T04:44:56.462Z,-14.79
2018-02-27T04:45:56.155Z,-14.83
2018-02-27T04:46:56.218Z,-14.86
2018-02-27T04:47:56.170Z,-14.81
2018-02-27T04:48:56.181Z,-14.73
2018-02-27T04:49:56.238Z,-14.71
2018-02-27T04:52:02.457Z,-14.7
2018-02-27T04:52:56.467Z,-14.73
2018-02-27T04:53:56.221Z,-14.78
2018-02-27T04:54:56.186Z,-14.73
2018-02-27T04:55:56.182Z,-14.82
2018-02-27T04:56:56.184Z,-14.72
2018-02-27T04:57:56.170Z,-14.72
2018-02-27T04:58:56.176Z,-14.68
2018-02-27T04:59:56.204Z,-14.7
2018-02-27T05:00:56.203Z,-14.67
2018-02-27T05:01:56.218Z,-14.72
2018-02-27T05:02:56.200Z,-14.65
2018-02-27T05:03:56.266Z,-14.66
2018-02-27T05:04:56.228Z,-14.64
2018-02-27T05:05:56.219Z,-14.64
2018-02-27T05:06:56.222Z,-14.66
2018-02-27T05:07:56.239Z,-14.61
2018-02-27T05:08:56.216Z,-14.58
2018-02-27T05:09:56.222Z,-14.53
2018-02-27T05:10:56.236Z,-14.55
2018-02-27T05:11:56.230Z,-14.53
2018-02-27T05:12:56.258Z,-14.53
2018-02-27T05:13:56.240Z,-14.49
2018-02-27T05:14:56.389Z,-14.45
2018-02-27T05:15:56.230Z,-14.52
2018-02-27T05:16:56.225Z,-14.45
2018-02-27T05:17:56.445Z,-14.42
2018-02-27T05:18:56.388Z,-14.44
2018-02-27T05:19:56.228Z,-14.42
2018-02-27T05:20:56.244Z,-14.4
2018-02-27T05:21:56.397Z,-14.4
2018-02-27T05:22:56.234Z,-14.37
2018-02-27T05:23:56.492Z,-14.34
2018-02-27T05:24:56.252Z,-14.35
2018-02-27T05:25:56.499Z,-14.42
2018-02-27T05:26:56.264Z,-14.37
2018-02-27T05:27:56.425Z,-14.34
2018-02-27T05:28:56.481Z,-14.34
2018-02-27T05:29:56.279Z,-14.24
2018-02-27T05:30:56.501Z,-14.32
2018-02-27T05:31:56.292Z,-14.27
2018-02-27T05:32:56.281Z,-14.27
2018-02-27T05:33:56.467Z,-14.28
2018-02-27T05:34:56.310Z,-14.24
2018-02-27T05:35:56.296Z,-14.23
2018-02-27T05:36:56.464Z,-14.26
2018-02-27T05:37:56.448Z,-14.27
2018-02-27T05:38:56.462Z,-14.23
2018-02-27T05:39:56.461Z,-14.3
2018-02-27T05:40:56.477Z,-14.15
2018-02-27T05:41:56.493Z,-14.17
2018-02-27T05:42:56.475Z,-14.09
2018-02-27T05:43:56.465Z,-14.08
2018-02-27T05:44:56.474Z,-14.12
2018-02-27T05:45:56.504Z,-14.16
2018-02-27T05:46:56.499Z,-14.13
2018-02-27T05:47:56.476Z,-14.12
2018-02-27T05:48:56.488Z,-14.14
2018-02-27T05:49:56.506Z,-14.13
2018-02-27T05:50:56.502Z,-14.13
2018-02-27T05:51:56.495Z,-14.15
2018-02-27T05:52:56.489Z,-14.12
2018-02-27T05:53:56.512Z,-14.09
2018-02-27T05:54:56.343Z,-14.1
2018-02-27T05:55:56.349Z,-14.07
2018-02-27T05:56:56.407Z,-14
2018-02-27T05:57:56.371Z,-14.04
2018-02-27T05:58:56.369Z,-14.02
2018-02-27T05:59:56.496Z,-14.09
2018-02-27T06:00:56.434Z,-14.03
2018-02-27T06:01:56.535Z,-14.08
2018-02-27T06:02:56.492Z,-14.13
2018-02-27T06:03:56.387Z,-14.13
2018-02-27T06:04:56.770Z,-14.07
2018-02-27T06:05:56.422Z,-14.03
2018-02-27T06:06:56.395Z,-14.09
2018-02-27T06:07:56.429Z,-14.01
2018-02-27T06:08:56.421Z,-14.1
2018-02-27T06:09:56.482Z,-14.12
2018-02-27T06:10:56.417Z,-14.15
2018-02-27T06:11:56.432Z,-14.13
2018-02-27T06:12:56.425Z,-14.18
2018-02-27T06:13:56.446Z,-14.09
2018-02-27T06:14:56.581Z,-14.16
2018-02-27T06:15:56.467Z,-14.09
2018-02-27T06:16:56.450Z,-14.09
2018-02-27T06:17:56.446Z,-14.11
2018-02-27T06:18:56.456Z,-14.1
2018-02-27T06:19:56.440Z,-13.67
2018-02-27T06:20:56.468Z,-13.9
2018-02-27T06:21:56.458Z,-13.98
2018-02-27T06:22:56.430Z,-13.99
2018-02-27T06:23:56.475Z,-14.02
2018-02-27T06:24:56.446Z,-14.02
2018-02-27T06:25:56.448Z,-14.02
2018-02-27T06:26:56.637Z,-14.06
2018-02-27T06:27:56.618Z,-14.09
2018-02-27T06:28:56.628Z,-14.06
2018-02-27T06:29:56.510Z,-13.99
2018-02-27T06:30:56.645Z,-13.97
2018-02-27T06:31:56.652Z,-14.03
2018-02-27T06:32:56.520Z,-14.1
2018-02-27T06:33:56.493Z,-14.14
2018-02-27T06:34:56.484Z,-14.13
2018-02-27T06:35:56.476Z,-14.1
2018-02-27T06:36:56.486Z,-14.1
2018-02-27T06:37:56.494Z,-14.07
2018-02-27T06:38:56.489Z,-14.15
2018-02-27T06:39:56.498Z,-14.02
2018-02-27T06:40:56.498Z,-14.02
2018-02-27T06:41:56.676Z,-14.02
2018-02-27T06:42:56.526Z,-14.04
2018-02-27T06:43:56.513Z,-14.07
2018-02-27T06:44:56.516Z,-14.01
2018-02-27T06:45:56.509Z,-14.01
2018-02-27T06:46:56.529Z,-14.07
2018-02-27T06:47:56.687Z,-14.11
2018-02-27T06:48:56.696Z,-13.94
2018-02-27T06:49:56.693Z,-13.92
2018-02-27T06:50:56.708Z,-14.02
2018-02-27T06:51:56.533Z,-14.04
2018-02-27T06:52:56.707Z,-14.03
2018-02-27T06:53:56.719Z,-14.01
2018-02-27T06:54:56.716Z,-13.98
2018-02-27T06:55:56.767Z,-14
2018-02-27T06:56:56.741Z,-13.93
2018-02-27T06:57:56.726Z,-14.04
2018-02-27T06:58:56.750Z,-14.03
2018-02-27T06:59:56.745Z,-13.98
2018-02-27T07:00:56.747Z,-13.9
2018-02-27T07:01:56.741Z,-13.91
2018-02-27T07:02:56.765Z,-13.94
2018-02-27T07:03:56.745Z,-13.86
2018-02-27T07:04:56.812Z,-13.91
2018-02-27T07:05:56.602Z,-13.97
2018-02-27T07:06:56.664Z,-13.97
2018-02-27T07:07:56.609Z,-13.96
2018-02-27T07:08:56.613Z,-14
2018-02-27T07:09:56.762Z,-14.1
2018-02-27T07:10:56.614Z,-14.01
2018-02-27T07:11:56.604Z,-14.05
2018-02-27T07:12:56.785Z,-14.07
2018-02-27T07:13:56.768Z,-14.1
2018-02-27T07:14:56.777Z,-14.06
2018-02-27T07:15:56.631Z,-13.91
2018-02-27T07:16:56.632Z,-14.01
2018-02-27T07:17:56.658Z,-13.93
2018-02-27T07:18:56.925Z,-13.89
2018-02-27T07:19:56.797Z,-14.03
2018-02-27T07:20:56.806Z,-14.1
2018-02-27T07:21:56.802Z,-14.06
2018-02-27T07:22:56.805Z,-14.13
2018-02-27T07:23:56.649Z,-14.23
2018-02-27T07:24:56.655Z,-14.28
2018-02-27T07:25:56.668Z,-14.21
2018-02-27T07:26:56.803Z,-14.15
2018-02-27T07:27:56.870Z,-14.17
2018-02-27T07:28:56.854Z,-14.19
2018-02-27T07:29:56.676Z,-14.28
2018-02-27T07:30:56.686Z,-14.35
2018-02-27T07:31:56.671Z,-14.38
2018-02-27T07:32:56.675Z,-14.32
2018-02-27T07:33:56.856Z,-14.32
2018-02-27T07:34:56.871Z,-14.36
2018-02-27T07:35:56.835Z,-14.27
2018-02-27T07:36:56.690Z,-14.25
2018-02-27T07:37:56.697Z,-14.25
2018-02-27T07:38:56.710Z,-14.26
2018-02-27T07:39:56.797Z,-14.22
2018-02-27T07:40:56.718Z,-14.18
2018-02-27T07:41:56.738Z,-14.17
2018-02-27T07:42:56.706Z,-14.19
2018-02-27T07:43:56.716Z,-14.13
2018-02-27T07:44:56.775Z,-14.11
2018-02-27T07:45:56.713Z,-14.09
2018-02-27T07:46:56.906Z,-14.11
2018-02-27T07:47:56.871Z,-14.26
2018-02-27T07:48:56.732Z,-14.35
2018-02-27T07:49:56.719Z,-14.48
2018-02-27T07:50:56.728Z,-14.37
2018-02-27T07:51:56.755Z,-14.36
2018-02-27T07:52:56.885Z,-14.35
2018-02-27T07:53:56.758Z,-14.32
2018-02-27T07:54:56.750Z,-14.29
2018-02-27T07:55:57.192Z,-14.18
2018-02-27T07:56:56.766Z,-14.18
2018-02-27T07:57:56.754Z,-14.31
2018-02-27T07:58:56.751Z,-14.26
2018-02-27T07:59:56.926Z,-14.42
2018-02-27T08:00:56.946Z,-14.55
2018-02-27T08:01:56.917Z,-14.63
2018-02-27T08:02:56.917Z,-14.6
2018-02-27T08:03:57.119Z,-14.56
2018-02-27T08:04:56.935Z,-14.47
2018-02-27T08:05:56.986Z,-14.35
2018-02-27T08:06:56.779Z,-14.39
2018-02-27T08:07:56.948Z,-14.3
2018-02-27T08:08:56.939Z,-14.27
2018-02-27T08:09:56.955Z,-14.33
2018-02-27T08:10:56.945Z,-14.25
2018-02-27T08:11:56.784Z,-14.54
2018-02-27T08:12:56.945Z,-14.74
2018-02-27T08:13:56.969Z,-14.91
2018-02-27T08:14:56.974Z,-14.91
2018-02-27T08:15:57.368Z,-14.83
2018-02-27T08:16:56.978Z,-15.04
2018-02-27T08:17:56.979Z,-15.16
2018-02-27T08:18:56.821Z,-15.15
2018-02-27T08:19:56.972Z,-15.37
2018-02-27T08:20:56.864Z,-15.37
2018-02-27T08:21:57.112Z,-15.46
2018-02-27T08:22:57.018Z,-15.47
2018-02-27T08:23:56.977Z,-15.39
2018-02-27T08:24:56.975Z,-15.4
2018-02-27T08:25:57.004Z,-15.36
2018-02-27T08:26:56.977Z,-15.37
2018-02-27T08:27:56.978Z,-15.4
2018-02-27T08:28:56.996Z,-15.29
2018-02-27T08:29:57.043Z,-15.3
2018-02-27T08:30:57.026Z,-15.23
2018-02-27T08:31:57.001Z,-15.2
2018-02-27T08:32:56.845Z,-15.28
2018-02-27T08:33:56.996Z,-15.48
2018-02-27T08:34:56.848Z,-15.61
2018-02-27T08:35:56.830Z,-15.55
2018-02-27T08:36:56.918Z,-15.63
2018-02-27T08:37:56.861Z,-15.61
2018-02-27T08:38:56.849Z,-15.61
2018-02-27T08:39:56.855Z,-15.55
2018-02-27T08:40:56.872Z,-15.39
2018-02-27T08:41:57.066Z,-15.46
2018-02-27T08:42:57.032Z,-15.47
2018-02-27T08:43:57.039Z,-15.47
2018-02-27T08:44:56.921Z,-15.41
2018-02-27T08:45:56.890Z,-15.29
2018-02-27T08:46:56.898Z,-15.14
2018-02-27T08:47:56.872Z,-15.08
2018-02-27T08:48:56.911Z,-15.07
2018-02-27T08:49:56.902Z,-15.12
2018-02-27T08:50:57.181Z,-15.3
2018-02-27T08:51:56.898Z,-15.36
2018-02-27T08:52:56.939Z,-15.51
2018-02-27T08:53:56.901Z,-15.47
2018-02-27T08:54:57.097Z,-15.51
2018-02-27T08:55:57.096Z,-15.43
2018-02-27T08:56:56.907Z,-15.38
2018-02-27T08:57:57.072Z,-15.27
2018-02-27T08:58:56.934Z,-15.27
2018-02-27T08:59:56.916Z,-15.31
2018-02-27T09:00:56.924Z,-15.21
2018-02-27T09:01:56.912Z,-15.37
2018-02-27T09:02:56.924Z,-15.27
2018-02-27T09:03:56.928Z,-15.1
2018-02-27T09:04:56.932Z,-15.12
2018-02-27T09:05:56.928Z,-15.16
2018-02-27T09:06:56.929Z,-15.21
2018-02-27T09:07:56.958Z,-15.29
2018-02-27T09:08:56.947Z,-15.21
2018-02-27T09:09:57.012Z,-15.14
2018-02-27T09:10:56.976Z,-15.19
2018-02-27T09:11:57.116Z,-15.41
2018-02-27T09:12:57.112Z,-15.49
2018-02-27T09:13:57.115Z,-15.4
2018-02-27T09:14:57.115Z,-15.38
2018-02-27T09:15:57.124Z,-15.42
2018-02-27T09:16:56.965Z,-15.53
2018-02-27T09:17:57.113Z,-15.45
2018-02-27T09:18:57.110Z,-15.41
2018-02-27T09:19:57.135Z,-15.53
2018-02-27T09:20:56.968Z,-15.38
2018-02-27T09:21:57.131Z,-15.32
2018-02-27T09:22:57.153Z,-15.17
2018-02-27T09:23:57.144Z,-15.43
2018-02-27T09:24:57.173Z,-15.54
2018-02-27T09:25:57.155Z,-15.78
2018-02-27T09:26:57.145Z,-15.95
2018-02-27T09:27:57.139Z,-15.92
2018-02-27T09:28:57.157Z,-15.94
2018-02-27T09:29:57.457Z,-15.82
2018-02-27T09:30:57.150Z,-15.75
2018-02-27T09:31:57.162Z,-15.79
2018-02-27T09:32:57.162Z,-15.79
2018-02-27T09:33:57.164Z,-15.48
2018-02-27T09:34:57.407Z,-15.73
2018-02-27T09:35:57.172Z,-15.6
2018-02-27T09:36:57.175Z,-15.62
2018-02-27T09:37:57.178Z,-15.63
2018-02-27T09:38:57.196Z,-15.65
2018-02-27T09:39:57.211Z,-15.66
2018-02-27T09:40:57.198Z,-15.7
2018-02-27T09:41:57.179Z,-15.6
2018-02-27T09:42:57.221Z,-15.52
2018-02-27T09:43:57.196Z,-15.52
2018-02-27T09:44:57.219Z,-15.52
2018-02-27T09:45:57.191Z,-15.64
2018-02-27T09:46:57.096Z,-15.58
2018-02-27T09:47:57.056Z,-15.55
2018-02-27T09:48:57.057Z,-15.52
2018-02-27T09:49:57.057Z,-15.73
2018-02-27T09:50:57.071Z,-15.66
2018-02-27T09:51:57.068Z,-15.53
2018-02-27T09:52:57.059Z,-15.54
2018-02-27T09:53:57.222Z,-15.39
2018-02-27T09:54:57.310Z,-15.45
2018-02-27T09:55:57.200Z,-15.44
2018-02-27T09:56:57.084Z,-15.48
2018-02-27T09:57:57.141Z,-15.31
2018-02-27T09:58:57.097Z,-15.33
2018-02-27T09:59:57.121Z,-15.26
2018-02-27T10:00:57.096Z,-15.33
2018-02-27T10:01:57.095Z,-15.43
2018-02-27T10:02:57.127Z,-15.25
2018-02-27T10:03:57.105Z,-15.34
2018-02-27T10:04:57.148Z,-15.4
2018-02-27T10:05:57.113Z,-15.79
2018-02-27T10:06:57.106Z,-15.61
2018-02-27T10:07:57.129Z,-15.29
2018-02-27T10:08:57.135Z,-15.37
2018-02-27T10:09:57.181Z,-15.45
2018-02-27T10:10:57.135Z,-15.54
2018-02-27T10:11:57.152Z,-15.31
2018-02-27T10:12:57.146Z,-15.43
2018-02-27T10:13:57.151Z,-15.24
2018-02-27T10:16:57.244Z,-15.22
2018-02-27T10:17:57.157Z,-15.35
2018-02-27T10:18:57.167Z,-15.41
2018-02-27T10:19:57.208Z,-15.27
2018-02-27T10:20:57.181Z,-15.19
2018-02-27T10:21:57.173Z,-15.3
2018-02-27T10:22:57.338Z,-15.36
2018-02-27T10:25:03.563Z,-15.94
2018-02-27T10:25:57.338Z,-15.9
2018-02-27T10:26:57.345Z,-15.83
2018-02-27T10:27:57.346Z,-15.63
2018-02-27T10:28:57.376Z,-15.5
2018-02-27T10:29:57.391Z,-15.38
2018-02-27T10:30:57.408Z,-15.33
2018-02-27T10:31:57.256Z,-15.22
2018-02-27T10:32:57.395Z,-15.39
2018-02-27T10:33:57.374Z,-15.65
2018-02-27T10:34:57.679Z,-15.59
2018-02-27T10:35:57.656Z,-15.34
2018-02-27T10:36:57.385Z,-15.32
2018-02-27T10:37:57.372Z,-15.38
2018-02-27T10:38:57.217Z,-15.36
2018-02-27T10:39:57.426Z,-15.35
2018-02-27T10:40:57.243Z,-15.27
2018-02-27T10:41:57.262Z,-15.2
2018-02-27T10:42:57.243Z,-15.21
2018-02-27T10:43:57.235Z,-15.47
2018-02-27T10:44:57.239Z,-15.39
2018-02-27T10:45:57.285Z,-15.21
2018-02-27T10:46:57.252Z,-15.26
2018-02-27T10:47:57.261Z,-15.27
2018-02-27T10:48:57.442Z,-15.34
2018-02-27T10:49:57.406Z,-15.47
2018-02-27T10:50:57.295Z,-15.28
2018-02-27T10:51:57.293Z,-15.38
2018-02-27T10:52:57.282Z,-15.36
2018-02-27T10:53:57.274Z,-15.51
2018-02-27T10:54:57.476Z,-15.39
2018-02-27T10:55:57.273Z,-15.1
2018-02-27T10:56:57.323Z,-15.5
2018-02-27T10:57:57.297Z,-15.67
2018-02-27T10:58:57.309Z,-15.66
2018-02-27T10:59:57.326Z,-16.06
2018-02-27T11:00:57.283Z,-15.93
2018-02-27T11:01:57.438Z,-15.69
2018-02-27T11:02:57.294Z,-15.84
2018-02-27T11:03:57.296Z,-15.52
2018-02-27T11:04:57.312Z,-15.6
2018-02-27T11:05:57.300Z,-15.49
2018-02-27T11:06:57.308Z,-15.87
2018-02-27T11:07:57.322Z,-15.61
2018-02-27T11:08:57.300Z,-15.42
2018-02-27T11:11:03.547Z,-15.66
2018-02-27T11:11:57.339Z,-15.57
2018-02-27T11:12:57.383Z,-15.8
2018-02-27T11:13:57.539Z,-15.86
2018-02-27T11:14:57.379Z,-15.93
2018-02-27T11:15:57.823Z,-15.87
2018-02-27T11:16:57.486Z,-15.74
2018-02-27T11:17:57.329Z,-15.67
2018-02-27T11:18:57.339Z,-15.85
2018-02-27T11:19:57.595Z,-15.86
2018-02-27T11:20:57.353Z,-15.76
2018-02-27T11:21:57.399Z,-15.93
2018-02-27T11:22:57.356Z,-15.94
2018-02-27T11:23:57.390Z,-15.84
2018-02-27T11:24:57.523Z,-16.11
2018-02-27T11:25:57.375Z,-15.93
2018-02-27T11:26:57.386Z,-15.89
2018-02-27T11:27:57.376Z,-16.12
2018-02-27T11:28:57.401Z,-15.97
2018-02-27T11:29:57.391Z,-15.7
2018-02-27T11:30:57.409Z,-15.75
2018-02-27T11:31:57.413Z,-15.68
2018-02-27T11:32:57.427Z,-15.91
2018-02-27T11:33:57.401Z,-15.93
2018-02-27T11:34:57.418Z,-16.09
2018-02-27T11:35:57.568Z,-15.81
2018-02-27T11:36:57.585Z,-16.03
2018-02-27T11:37:57.578Z,-15.88
2018-02-27T11:38:57.670Z,-15.9
2018-02-27T11:39:57.409Z,-16.04
2018-02-27T11:40:57.581Z,-16.34
2018-02-27T11:41:57.475Z,-16.1
2018-02-27T11:42:57.593Z,-15.95
2018-02-27T11:43:57.465Z,-15.91
2018-02-27T11:44:57.588Z,-15.92
2018-02-27T11:45:57.583Z,-16.26
2018-02-27T11:46:57.626Z,-16.31
2018-02-27T11:47:57.609Z,-16.22
2018-02-27T11:48:57.613Z,-15.96
2018-02-27T11:49:57.620Z,-15.93
2018-02-27T11:50:57.610Z,-15.89
2018-02-27T11:51:57.471Z,-15.69
2018-02-27T11:52:57.470Z,-15.62
2018-02-27T11:53:57.486Z,-15.6
2018-02-27T11:54:57.490Z,-15.67
2018-02-27T11:55:57.482Z,-15.58
2018-02-27T11:56:57.479Z,-15.5
2018-02-27T11:57:57.495Z,-15.48
2018-02-27T11:58:57.497Z,-15.48
2018-02-27T11:59:57.497Z,-15.63
2018-02-27T12:00:57.494Z,-15.69
2018-02-27T12:01:57.501Z,-15.98
2018-02-27T12:02:57.503Z,-15.82
2018-02-27T12:03:57.515Z,-15.79
2018-02-27T12:04:57.516Z,-15.85
2018-02-27T12:05:57.505Z,-15.89
2018-02-27T12:06:57.512Z,-15.81
2018-02-27T12:07:57.538Z,-15.56
2018-02-27T12:08:57.511Z,-15.46
2018-02-27T12:09:57.531Z,-15.71
2018-02-27T12:10:57.526Z,-15.57
2018-02-27T12:11:57.504Z,-15.59
2018-02-27T12:12:57.519Z,-15.66
2018-02-27T12:13:57.523Z,-15.78
2018-02-27T12:14:57.537Z,-15.52
2018-02-27T12:15:57.534Z,-15.28
2018-02-27T12:16:57.536Z,-15.38
2018-02-27T12:17:57.543Z,-15.49
2018-02-27T12:18:57.546Z,-15.46
2018-02-27T12:19:57.574Z,-15.55
2018-02-27T12:20:57.577Z,-15.48
2018-02-27T12:21:57.587Z,-15.31
2018-02-27T12:22:57.579Z,-15.47
2018-02-27T12:23:57.618Z,-15.79
2018-02-27T12:24:57.608Z,-15.49
2018-02-27T12:25:57.590Z,-15.59
2018-02-27T12:26:57.604Z,-15.08
2018-02-27T12:27:57.588Z,-15.29
2018-02-27T12:28:57.619Z,-15.19
2018-02-27T12:29:57.602Z,-15.36
2018-02-27T12:30:57.590Z,-15.58
2018-02-27T12:31:57.606Z,-15.43
2018-02-27T12:32:57.588Z,-15.39
2018-02-27T12:33:57.586Z,-15.33
2018-02-27T12:34:57.584Z,-15.32
2018-02-27T12:35:57.757Z,-15.23
2018-02-27T12:36:57.616Z,-15.18
2018-02-27T12:37:57.585Z,-15.38
2018-02-27T12:38:57.598Z,-15.43
2018-02-27T12:39:57.616Z,-15.68
2018-02-27T12:40:57.613Z,-15.75
2018-02-27T12:41:57.831Z,-15.43